createdAt,value
2023-01-31T00:02:10.996Z,49.10
2023-01-31T00:04:37.614Z,48.30
2023-01-31T00:07:04.199Z,48.30
2023-01-31T00:09:30.809Z,48.30
2023-01-31T00:11:57.433Z,48.30
2023-01-31T00:14:25.918Z,48.30
2023-01-31T00:16:52.533Z,48.30
2023-01-31T00:19:19.412Z,48.70
2023-01-31T00:21:46.096Z,48.30
2023-01-31T00:24:13.061Z,48.50
2023-01-31T00:26:39.844Z,48.30
2023-01-31T00:29:06.549Z,48.30
2023-01-31T00:31:33.715Z,48.20
2023-01-31T00:44:55.793Z,48.30
2023-01-31T00:47:22.400Z,48.20
2023-01-31T00:49:49.004Z,48.30
2023-01-31T00:52:15.673Z,48.30
2023-01-31T00:54:43.012Z,48.30
2023-01-31T00:57:09.701Z,48.30
2023-01-31T00:59:37.053Z,48.20
2023-01-31T01:02:03.733Z,48.20
2023-01-31T01:04:30.358Z,48.30
2023-01-31T01:06:56.959Z,48.20
2023-01-31T01:09:23.647Z,48.30
2023-01-31T01:11:50.384Z,48.30
2023-01-31T01:14:17.181Z,48.20
2023-01-31T01:16:43.937Z,48.10
2023-01-31T01:19:12.267Z,48.20
2023-01-31T01:21:40.839Z,48.20
2023-01-31T01:24:17.418Z,48.20
2023-01-31T01:26:44.768Z,48.10
2023-01-31T01:29:12.410Z,48.20
2023-01-31T01:31:39.481Z,48.30
2023-01-31T01:34:08.369Z,48.20
2023-01-31T01:36:35.919Z,48.00
2023-01-31T01:39:03.212Z,48.20
2023-01-31T01:41:30.211Z,48.20
2023-01-31T01:43:57.697Z,48.20
2023-01-31T01:46:30.532Z,48.10
2023-01-31T01:49:04.471Z,48.20
2023-01-31T01:51:32.405Z,48.20
2023-01-31T01:53:59.520Z,48.20
2023-01-31T01:56:28.128Z,48.20
2023-01-31T01:59:30.472Z,48.10
2023-01-31T02:01:57.226Z,48.10
2023-01-31T02:04:25.923Z,48.20
2023-01-31T02:06:52.716Z,48.10
2023-01-31T02:09:20.757Z,48.10
2023-01-31T02:11:47.562Z,48.00
2023-01-31T02:14:14.218Z,48.00
2023-01-31T02:16:40.859Z,48.10
2023-01-31T02:19:10.300Z,48.30
2023-01-31T02:21:46.943Z,48.00
2023-01-31T02:24:19.642Z,48.10
2023-01-31T02:26:52.456Z,48.00
2023-01-31T02:29:28.311Z,48.10
2023-01-31T02:31:58.040Z,48.10
2023-01-31T02:34:34.338Z,48.10
2023-01-31T02:37:21.201Z,48.10
2023-01-31T02:39:47.850Z,48.00
2023-01-31T02:42:16.411Z,48.10
2023-01-31T02:45:00.283Z,48.00
2023-01-31T02:47:33.193Z,48.00
2023-01-31T02:50:20.986Z,48.10
2023-01-31T02:52:56.861Z,48.10
2023-01-31T02:55:46.998Z,47.90
2023-01-31T02:58:13.993Z,48.00
2023-01-31T03:00:41.180Z,47.90
2023-01-31T03:03:08.285Z,48.60
2023-01-31T03:05:34.879Z,48.00
2023-01-31T03:08:02.210Z,48.00
2023-01-31T03:10:28.889Z,48.00
2023-01-31T03:13:33.970Z,48.00
2023-01-31T03:16:21.467Z,48.10
2023-01-31T03:19:13.873Z,48.00
2023-01-31T03:21:51.088Z,48.00
2023-01-31T03:24:18.219Z,47.90
2023-01-31T03:26:44.969Z,48.00
2023-01-31T03:29:13.599Z,47.90
2023-01-31T03:31:41.331Z,48.00
2023-01-31T03:34:08.723Z,48.00
2023-01-31T03:36:39.934Z,47.80
2023-01-31T03:39:06.661Z,47.80
2023-01-31T03:41:48.345Z,47.80
2023-01-31T03:44:24.715Z,47.80
2023-01-31T03:46:52.111Z,48.00
2023-01-31T03:49:18.737Z,47.80
2023-01-31T03:51:48.110Z,47.80
2023-01-31T03:54:17.808Z,47.80
2023-01-31T03:56:45.749Z,47.90
2023-01-31T03:59:14.129Z,47.90
2023-01-31T04:01:41.945Z,47.90
2023-01-31T04:04:10.481Z,47.90
2023-01-31T04:06:37.156Z,47.80
2023-01-31T04:09:03.842Z,47.90
2023-01-31T04:11:30.512Z,47.80
2023-01-31T04:13:57.147Z,47.80
2023-01-31T04:16:23.888Z,47.90
2023-01-31T04:18:51.788Z,47.90
2023-01-31T04:21:18.411Z,47.90
2023-01-31T04:23:45.011Z,47.80
2023-01-31T04:26:11.670Z,47.80
2023-01-31T04:28:38.466Z,47.80
2023-01-31T04:31:05.147Z,47.90
2023-01-31T04:33:32.035Z,47.90
2023-01-31T04:35:58.721Z,47.90
2023-01-31T04:38:25.465Z,47.90
2023-01-31T04:40:52.075Z,47.90
2023-01-31T04:43:18.731Z,47.80
2023-01-31T04:45:45.379Z,47.70
2023-01-31T04:48:12.063Z,47.70
2023-01-31T04:50:38.770Z,47.70
2023-01-31T04:53:05.396Z,47.70
2023-01-31T04:55:32.147Z,47.80
2023-01-31T04:57:58.837Z,47.80
2023-01-31T05:00:25.535Z,47.70
2023-01-31T05:02:53.149Z,47.70
2023-01-31T05:05:22.796Z,47.90
2023-01-31T05:07:49.651Z,47.70
2023-01-31T05:10:16.484Z,47.70
2023-01-31T05:12:43.196Z,47.70
2023-01-31T05:15:11.672Z,47.70
2023-01-31T05:17:38.483Z,47.70
2023-01-31T05:20:05.542Z,47.70
2023-01-31T05:22:32.514Z,47.80
2023-01-31T05:25:02.222Z,47.70
2023-01-31T05:27:28.918Z,47.80
2023-01-31T05:29:55.815Z,47.70
2023-01-31T05:32:22.711Z,47.80
2023-01-31T05:34:49.382Z,47.80
2023-01-31T05:37:16.086Z,47.80
2023-01-31T05:39:42.864Z,47.80
2023-01-31T05:42:09.591Z,47.80
2023-01-31T05:44:36.869Z,47.70
2023-01-31T05:47:04.123Z,47.80
2023-01-31T05:49:34.544Z,47.70
2023-01-31T05:52:01.988Z,47.90
2023-01-31T05:54:34.897Z,47.70
2023-01-31T05:57:01.641Z,47.80
2023-01-31T05:59:31.087Z,47.80
2023-01-31T06:01:57.875Z,47.80
2023-01-31T06:04:24.589Z,47.80
2023-01-31T06:06:51.308Z,47.80
2023-01-31T06:09:18.065Z,47.90
2023-01-31T06:11:45.082Z,48.00
2023-01-31T06:14:11.761Z,48.20
2023-01-31T06:16:38.510Z,48.60
2023-01-31T06:19:05.220Z,48.40
2023-01-31T06:21:32.079Z,48.30
2023-01-31T06:23:58.800Z,48.50
2023-01-31T06:26:25.548Z,47.80
2023-01-31T06:28:52.326Z,48.10
2023-01-31T06:31:25.344Z,48.40
2023-01-31T06:33:58.937Z,48.30
2023-01-31T06:36:25.684Z,48.20
2023-01-31T06:38:52.530Z,48.20
2023-01-31T06:41:19.564Z,48.20
2023-01-31T06:43:46.278Z,48.30
2023-01-31T06:46:13.110Z,48.40
2023-01-31T06:48:39.900Z,48.20
2023-01-31T06:51:09.954Z,48.40
2023-01-31T06:53:36.671Z,48.30
2023-01-31T06:56:03.399Z,48.20
2023-01-31T06:58:30.353Z,48.30
2023-01-31T07:00:57.044Z,48.30
2023-01-31T07:03:24.690Z,48.30
2023-01-31T07:05:51.341Z,48.20
2023-01-31T07:08:18.080Z,48.30
2023-01-31T07:10:44.874Z,48.20
2023-01-31T07:13:11.590Z,48.10
2023-01-31T07:15:38.254Z,48.30
2023-01-31T07:18:06.285Z,48.20
2023-01-31T07:20:33.080Z,48.30
2023-01-31T07:23:00.047Z,48.30
2023-01-31T07:25:26.862Z,48.10
2023-01-31T07:27:53.550Z,48.10
2023-01-31T07:30:20.224Z,48.20
2023-01-31T07:32:46.986Z,48.20
2023-01-31T07:35:13.707Z,48.20
2023-01-31T07:37:43.400Z,48.20
2023-01-31T07:40:10.980Z,48.20
2023-01-31T07:42:37.843Z,48.10
2023-01-31T07:45:21.651Z,48.20
2023-01-31T07:47:49.588Z,48.20
2023-01-31T07:50:16.482Z,48.20
2023-01-31T07:52:43.225Z,48.20
2023-01-31T07:55:09.996Z,48.20
2023-01-31T07:57:37.663Z,48.30
2023-01-31T08:00:24.556Z,48.30
2023-01-31T08:03:09.945Z,48.30
2023-01-31T08:05:36.627Z,48.30
2023-01-31T08:08:10.503Z,48.20
2023-01-31T08:10:37.556Z,48.30
2023-01-31T08:13:04.480Z,48.30
2023-01-31T08:15:31.703Z,48.30
2023-01-31T08:17:58.532Z,48.20
2023-01-31T08:20:25.320Z,48.20
2023-01-31T08:22:52.039Z,48.10
2023-01-31T08:25:20.447Z,48.10
2023-01-31T08:27:47.614Z,48.10
2023-01-31T08:30:14.388Z,48.00
2023-01-31T08:32:41.075Z,48.00
2023-01-31T08:35:07.985Z,48.10
2023-01-31T08:37:34.805Z,48.60
2023-01-31T08:40:01.650Z,48.10
2023-01-31T08:42:29.164Z,48.00
2023-01-31T08:44:56.576Z,48.00
2023-01-31T08:47:23.296Z,48.00
2023-01-31T08:49:50.000Z,48.00
2023-01-31T08:52:16.667Z,48.10
2023-01-31T08:54:43.358Z,48.00
2023-01-31T08:57:10.029Z,48.10
2023-01-31T08:59:36.929Z,48.10
2023-01-31T09:02:03.731Z,48.00
2023-01-31T09:04:31.166Z,48.00
2023-01-31T09:06:58.071Z,47.90
2023-01-31T09:09:26.337Z,48.10
2023-01-31T09:11:53.545Z,47.90
2023-01-31T09:14:20.303Z,48.00
2023-01-31T09:16:47.138Z,48.10
2023-01-31T09:19:13.874Z,47.90
2023-01-31T09:21:40.583Z,48.10
2023-01-31T09:24:07.397Z,48.00
2023-01-31T09:26:40.340Z,48.00
2023-01-31T09:29:07.196Z,48.00
2023-01-31T09:31:34.031Z,47.90
2023-01-31T09:34:01.088Z,48.00
2023-01-31T09:36:28.667Z,47.90
2023-01-31T09:38:56.768Z,48.00
2023-01-31T09:41:25.463Z,48.00
2023-01-31T09:43:53.677Z,48.00
2023-01-31T09:46:21.134Z,48.00
2023-01-31T09:48:48.865Z,47.90
2023-01-31T09:51:15.640Z,47.90
2023-01-31T09:53:42.464Z,47.90
2023-01-31T09:56:28.405Z,47.90
2023-01-31T09:59:01.582Z,48.00
2023-01-31T10:01:39.110Z,47.90
2023-01-31T10:04:24.604Z,47.90
2023-01-31T10:07:09.982Z,47.90
2023-01-31T10:09:37.965Z,48.00
2023-01-31T10:12:11.782Z,47.90
2023-01-31T10:14:50.662Z,48.00
2023-01-31T10:17:25.712Z,48.00
2023-01-31T10:19:52.498Z,48.00
2023-01-31T10:22:26.594Z,48.10
2023-01-31T10:24:55.606Z,48.10
2023-01-31T10:27:41.154Z,48.10
2023-01-31T10:30:18.968Z,48.10
2023-01-31T10:32:48.740Z,48.20
2023-01-31T10:35:15.426Z,48.10
2023-01-31T10:37:44.539Z,48.20
2023-01-31T10:40:21.870Z,48.20
2023-01-31T10:42:50.232Z,48.00
2023-01-31T10:45:24.070Z,48.20
2023-01-31T10:47:51.581Z,48.20
2023-01-31T10:50:19.838Z,48.20
2023-01-31T10:52:50.669Z,48.20
2023-01-31T10:55:41.119Z,48.20
2023-01-31T10:58:12.444Z,48.40
2023-01-31T11:00:39.200Z,48.20
2023-01-31T11:03:05.946Z,48.30
2023-01-31T11:05:32.653Z,48.20
2023-01-31T11:07:59.331Z,48.30
2023-01-31T11:10:26.111Z,48.30
2023-01-31T11:12:54.006Z,48.20
2023-01-31T11:15:20.771Z,48.40
2023-01-31T11:17:47.461Z,48.30
2023-01-31T11:20:40.532Z,48.50
2023-01-31T11:23:07.200Z,48.40
2023-01-31T11:25:37.034Z,48.40
2023-01-31T11:28:04.285Z,48.50
2023-01-31T11:30:38.916Z,48.50
2023-01-31T11:33:05.606Z,49.20
2023-01-31T11:35:33.016Z,48.50
2023-01-31T11:37:59.880Z,48.60
2023-01-31T11:40:27.956Z,48.60
2023-01-31T11:42:55.398Z,48.50
2023-01-31T11:45:23.244Z,48.60
2023-01-31T11:47:51.111Z,48.60
2023-01-31T11:50:27.750Z,48.60
2023-01-31T11:52:58.497Z,48.60
2023-01-31T11:55:25.215Z,48.40
2023-01-31T11:57:56.376Z,48.60
2023-01-31T12:00:26.781Z,48.40
2023-01-31T12:02:58.435Z,48.60
2023-01-31T12:05:25.119Z,48.60
2023-01-31T12:07:53.969Z,48.50
2023-01-31T12:10:29.881Z,48.60
2023-01-31T12:13:17.770Z,48.50
2023-01-31T12:15:52.483Z,48.70
2023-01-31T12:18:21.354Z,48.50
2023-01-31T12:20:49.312Z,48.60
2023-01-31T12:23:16.002Z,48.60
2023-01-31T12:25:56.909Z,48.50
2023-01-31T12:28:31.163Z,48.60
2023-01-31T12:31:11.262Z,48.50
2023-01-31T12:33:47.122Z,48.60
2023-01-31T12:36:29.164Z,48.50
2023-01-31T12:39:02.187Z,48.70
2023-01-31T12:41:41.868Z,48.40
2023-01-31T12:44:27.244Z,48.60
2023-01-31T12:47:11.006Z,48.70
2023-01-31T12:49:44.089Z,48.60
2023-01-31T12:52:29.576Z,48.70
2023-01-31T12:55:08.401Z,48.60
2023-01-31T12:57:58.491Z,48.80
2023-01-31T13:00:29.296Z,48.60
2023-01-31T13:03:15.080Z,48.80
2023-01-31T13:05:47.834Z,48.70
2023-01-31T13:08:18.621Z,48.70
2023-01-31T13:10:46.439Z,48.70
2023-01-31T13:13:29.851Z,48.70
2023-01-31T13:16:09.137Z,48.70
2023-01-31T13:18:35.961Z,48.70
2023-01-31T13:21:06.574Z,48.80
2023-01-31T13:23:36.392Z,48.60
2023-01-31T13:26:23.663Z,48.80
2023-01-31T13:29:09.102Z,48.70
2023-01-31T13:31:37.384Z,48.70
2023-01-31T13:34:07.143Z,48.80
2023-01-31T13:36:33.837Z,48.60
2023-01-31T13:39:09.050Z,48.80
2023-01-31T13:41:35.802Z,48.70
2023-01-31T13:44:02.745Z,48.60
2023-01-31T13:46:32.201Z,48.70
2023-01-31T13:49:25.326Z,48.60
2023-01-31T13:51:55.909Z,48.70
2023-01-31T13:54:23.829Z,48.60
2023-01-31T13:56:52.554Z,48.60
2023-01-31T13:59:26.219Z,48.60
2023-01-31T14:01:52.970Z,48.60
2023-01-31T14:04:21.753Z,48.60
2023-01-31T14:06:55.689Z,48.60
2023-01-31T14:09:26.494Z,48.80
2023-01-31T14:12:00.051Z,49.30
2023-01-31T14:14:41.996Z,48.80
2023-01-31T14:17:08.695Z,48.80
2023-01-31T14:19:44.423Z,48.70
2023-01-31T14:22:14.309Z,48.90
2023-01-31T14:24:44.099Z,48.80
2023-01-31T14:27:20.572Z,48.80
2023-01-31T14:29:48.039Z,48.80
2023-01-31T14:32:25.360Z,48.70
2023-01-31T14:34:52.048Z,48.80
2023-01-31T14:37:23.628Z,48.70
2023-01-31T14:39:56.544Z,48.80
2023-01-31T14:42:32.517Z,48.80
2023-01-31T14:45:03.382Z,48.70
2023-01-31T14:47:36.375Z,48.80
2023-01-31T14:50:22.319Z,48.80
2023-01-31T14:52:58.399Z,48.70
2023-01-31T14:55:27.088Z,48.70
2023-01-31T14:57:56.199Z,48.80
2023-01-31T15:00:30.323Z,48.60
2023-01-31T15:03:12.458Z,48.80
2023-01-31T15:05:39.217Z,48.70
2023-01-31T15:08:08.904Z,48.80
2023-01-31T15:10:54.969Z,48.80
2023-01-31T15:13:36.974Z,48.80
2023-01-31T15:16:04.277Z,48.90
2023-01-31T15:18:30.963Z,48.80
2023-01-31T15:21:01.353Z,48.80
2023-01-31T15:23:28.608Z,48.50
2023-01-31T15:25:55.795Z,48.80
2023-01-31T15:28:22.912Z,48.80
2023-01-31T15:30:49.637Z,48.80
2023-01-31T15:33:16.428Z,48.30
2023-01-31T15:35:44.945Z,48.60
2023-01-31T15:38:20.914Z,48.60
2023-01-31T15:40:47.623Z,48.80
2023-01-31T15:43:24.732Z,48.60
2023-01-31T15:45:52.744Z,48.60
2023-01-31T15:48:20.462Z,48.60
2023-01-31T15:50:54.080Z,48.50
2023-01-31T15:53:22.009Z,48.60
2023-01-31T15:55:48.927Z,48.50
2023-01-31T15:58:19.322Z,48.50
2023-01-31T16:00:49.349Z,48.40
2023-01-31T16:03:20.288Z,48.60
2023-01-31T16:05:49.694Z,48.70
2023-01-31T16:08:29.253Z,48.80
2023-01-31T16:10:56.265Z,48.80
2023-01-31T16:13:23.106Z,48.60
2023-01-31T16:15:49.971Z,48.80
2023-01-31T16:18:17.879Z,48.60
2023-01-31T16:20:48.513Z,48.80
2023-01-31T16:23:28.638Z,48.70
2023-01-31T16:26:14.090Z,48.60
2023-01-31T16:28:44.948Z,48.60
2023-01-31T16:31:13.922Z,48.70
2023-01-31T16:33:45.866Z,48.50
2023-01-31T16:36:17.240Z,48.60
2023-01-31T16:38:44.993Z,48.60
2023-01-31T16:41:13.052Z,48.50
2023-01-31T16:43:42.746Z,48.40
2023-01-31T16:46:19.662Z,48.40
2023-01-31T16:49:00.737Z,48.40
2023-01-31T16:51:30.421Z,48.60
2023-01-31T16:54:12.421Z,48.00
2023-01-31T16:56:39.976Z,48.30
2023-01-31T16:59:11.815Z,48.90
2023-01-31T17:01:39.602Z,48.80
2023-01-31T17:04:06.310Z,49.10
2023-01-31T17:06:33.040Z,49.10
2023-01-31T17:09:00.221Z,49.20
2023-01-31T17:11:41.765Z,49.20
2023-01-31T17:14:09.175Z,49.00
2023-01-31T17:16:35.917Z,49.10
2023-01-31T17:19:02.695Z,49.10
2023-01-31T17:21:29.980Z,49.10
2023-01-31T17:23:56.719Z,48.90
2023-01-31T17:26:23.511Z,48.90
2023-01-31T17:29:00.966Z,48.90
2023-01-31T17:31:29.837Z,48.90
2023-01-31T17:33:56.798Z,49.00
2023-01-31T17:36:23.724Z,48.90
2023-01-31T17:38:52.038Z,48.90
2023-01-31T17:41:19.855Z,48.90
2023-01-31T17:43:46.975Z,48.60
2023-01-31T17:46:17.363Z,48.30
2023-01-31T17:48:44.709Z,49.30
2023-01-31T17:51:18.345Z,48.90
2023-01-31T17:53:49.877Z,48.20
2023-01-31T17:56:17.847Z,48.60
2023-01-31T17:58:45.378Z,48.50
2023-01-31T18:01:14.998Z,48.50
2023-01-31T18:03:42.557Z,48.60
2023-01-31T18:06:09.396Z,48.50
2023-01-31T18:08:36.189Z,48.60
2023-01-31T18:11:06.716Z,48.50
2023-01-31T18:13:39.886Z,48.60
2023-01-31T18:16:07.880Z,48.60
2023-01-31T18:18:40.478Z,48.50
2023-01-31T18:21:14.679Z,48.60
2023-01-31T18:23:41.475Z,48.50
2023-01-31T18:26:08.451Z,48.60
2023-01-31T18:28:35.353Z,48.60
2023-01-31T18:31:05.838Z,48.60
2023-01-31T18:33:32.649Z,48.60
2023-01-31T18:35:59.676Z,48.50
2023-01-31T18:38:27.192Z,48.60
2023-01-31T18:40:53.988Z,48.60
2023-01-31T18:43:20.789Z,48.50
2023-01-31T18:45:47.698Z,48.60
2023-01-31T18:48:14.464Z,48.50
2023-01-31T18:50:41.182Z,48.60
2023-01-31T18:53:08.024Z,48.40
2023-01-31T18:55:34.729Z,49.10
2023-01-31T18:58:01.438Z,48.60
2023-01-31T19:00:28.185Z,48.50
2023-01-31T19:02:55.029Z,48.50
2023-01-31T19:05:22.218Z,48.50
2023-01-31T19:07:49.151Z,48.60
2023-01-31T19:10:16.164Z,48.60
2023-01-31T19:12:42.953Z,48.50
2023-01-31T19:15:10.500Z,49.20
2023-01-31T19:17:37.412Z,48.50
2023-01-31T19:20:04.610Z,48.50
2023-01-31T19:22:31.389Z,49.20
2023-01-31T19:24:58.237Z,48.50
2023-01-31T19:27:25.100Z,48.60
2023-01-31T19:29:51.782Z,48.50
2023-01-31T19:32:18.466Z,48.60
2023-01-31T19:34:45.160Z,48.50
2023-01-31T19:37:11.896Z,48.50
2023-01-31T19:39:39.074Z,48.60
2023-01-31T19:42:05.879Z,48.50
2023-01-31T19:44:32.562Z,48.50
2023-01-31T19:46:59.332Z,48.50
2023-01-31T19:49:26.401Z,48.60
2023-01-31T19:51:53.144Z,48.60
2023-01-31T19:54:20.872Z,48.70
2023-01-31T19:56:47.797Z,48.60
2023-01-31T19:59:15.281Z,48.50
2023-01-31T20:01:42.082Z,48.50
2023-01-31T20:04:14.797Z,48.60
2023-01-31T20:06:41.540Z,48.50
2023-01-31T20:09:09.135Z,48.60
2023-01-31T20:11:36.863Z,48.50
2023-01-31T20:14:04.575Z,48.70
2023-01-31T20:16:32.881Z,48.70
2023-01-31T20:19:00.917Z,49.50
2023-01-31T20:21:28.083Z,49.80
2023-01-31T20:23:54.793Z,48.80
2023-01-31T20:26:24.257Z,48.20
2023-01-31T20:28:51.202Z,48.00
2023-01-31T20:31:24.527Z,47.60
2023-01-31T20:33:52.182Z,47.60
2023-01-31T20:36:25.190Z,47.20
2023-01-31T20:38:51.980Z,47.30
2023-01-31T20:41:18.714Z,47.30
2023-01-31T20:43:45.827Z,47.20
2023-01-31T20:46:14.208Z,47.20
2023-01-31T20:48:41.179Z,47.00
2023-01-31T20:51:07.950Z,47.00
2023-01-31T20:53:34.862Z,46.80
2023-01-31T20:56:09.554Z,46.90
2023-01-31T20:58:37.008Z,46.80
2023-01-31T21:01:06.255Z,46.80
2023-01-31T21:03:33.309Z,46.70
2023-01-31T21:06:00.076Z,46.70
2023-01-31T21:08:27.191Z,46.60
2023-01-31T21:10:54.453Z,46.60
2023-01-31T21:13:21.233Z,46.70
2023-01-31T21:15:50.265Z,46.60
2023-01-31T21:18:16.908Z,46.80
2023-01-31T21:20:43.753Z,46.60
2023-01-31T21:23:10.373Z,46.60
2023-01-31T21:25:36.989Z,46.60
2023-01-31T21:28:03.717Z,46.50
2023-01-31T21:30:30.477Z,46.40
2023-01-31T21:32:57.052Z,46.40
2023-01-31T21:35:24.364Z,46.40
2023-01-31T21:37:50.917Z,46.40
2023-01-31T21:40:17.558Z,46.50
2023-01-31T21:42:44.176Z,46.40
2023-01-31T21:45:11.142Z,46.30
2023-01-31T21:47:57.764Z,46.30
2023-01-31T21:50:24.477Z,46.30
2023-01-31T21:52:51.384Z,46.20
2023-01-31T21:55:18.059Z,46.40
2023-01-31T21:57:44.729Z,46.40
2023-01-31T22:00:11.797Z,46.30
2023-01-31T22:02:38.511Z,46.40
2023-01-31T22:05:05.313Z,46.30
2023-01-31T22:07:31.894Z,46.40
2023-01-31T22:09:58.492Z,46.40
2023-01-31T22:12:25.111Z,46.30
2023-01-31T22:14:51.811Z,46.30
2023-01-31T22:17:18.407Z,46.40
2023-01-31T22:19:44.961Z,46.40
2023-01-31T22:22:11.605Z,46.30
2023-01-31T22:24:38.247Z,46.30
2023-01-31T22:27:04.858Z,46.30
2023-01-31T22:29:31.434Z,46.40
2023-01-31T22:31:58.106Z,46.30
2023-01-31T22:34:24.727Z,46.20
2023-01-31T22:36:51.352Z,46.20
2023-01-31T22:39:18.034Z,46.30
2023-01-31T22:41:44.803Z,46.30
2023-01-31T22:44:11.455Z,46.30
2023-01-31T22:46:38.214Z,46.30
2023-01-31T22:49:04.908Z,46.30
2023-01-31T22:51:31.482Z,46.40
2023-01-31T22:53:58.146Z,46.50
2023-01-31T22:56:25.979Z,46.40
2023-01-31T22:58:59.375Z,46.40
2023-01-31T23:01:26.838Z,46.40
2023-01-31T23:03:57.854Z,46.60
2023-01-31T23:06:24.761Z,46.40
2023-01-31T23:08:51.628Z,46.60
2023-01-31T23:11:18.406Z,46.40
2023-01-31T23:13:45.110Z,46.60
2023-01-31T23:16:42.363Z,46.50
2023-01-31T23:19:09.104Z,46.40
2023-01-31T23:21:35.804Z,46.50
2023-01-31T23:24:02.487Z,46.50
2023-01-31T23:26:29.255Z,46.50
2023-01-31T23:29:02.315Z,46.50
2023-01-31T23:31:29.070Z,46.60
2023-01-31T23:34:02.328Z,46.60
2023-01-31T23:36:28.984Z,46.60
2023-01-31T23:38:58.732Z,46.50
2023-01-31T23:41:31.721Z,46.50
2023-01-31T23:43:58.459Z,46.50
2023-01-31T23:46:25.198Z,46.50
2023-01-31T23:48:51.966Z,46.50
2023-01-31T23:51:18.743Z,46.50
2023-01-31T23:53:45.421Z,46.50
2023-01-31T23:56:12.143Z,46.60
2023-01-31T23:58:38.785Z,46.50
